createdAt,value
2023-05-03T00:02:28.106Z,102408.75
2023-05-03T00:04:56.102Z,102408.22
2023-05-03T00:07:24.029Z,102410.81
2023-05-03T00:09:51.959Z,102409.78
2023-05-03T00:12:20.076Z,102411.31
2023-05-03T00:14:49.342Z,102421.53
2023-05-03T00:17:17.235Z,102415.19
2023-05-03T00:19:45.155Z,102416.63
2023-05-03T00:22:13.054Z,102413.66
2023-05-03T00:24:40.934Z,102415.84
2023-05-03T00:27:08.854Z,102406.41
2023-05-03T00:29:36.781Z,102413.31
2023-05-03T00:32:06.465Z,102411.56
2023-05-03T00:34:34.644Z,102414.03
2023-05-03T00:37:02.554Z,102419.09
2023-05-03T00:39:31.820Z,102421.34
2023-05-03T00:42:01.418Z,102414.97
2023-05-03T00:44:29.300Z,102423.50
2023-05-03T00:46:58.480Z,102417.66
2023-05-03T00:49:27.969Z,102419.38
2023-05-03T00:51:57.525Z,102419.53
2023-05-03T00:54:25.676Z,102416.38
2023-05-03T00:56:53.962Z,102417.31
2023-05-03T00:59:21.886Z,102413.88
2023-05-03T01:01:51.025Z,102426.94
2023-05-03T01:04:21.514Z,102424.13
2023-05-03T01:07:03.022Z,102425.22
2023-05-03T01:09:39.597Z,102415.75
2023-05-03T01:12:20.670Z,102420.63
2023-05-03T01:15:00.001Z,102419.47
2023-05-03T01:17:31.180Z,102429.38
2023-05-03T01:20:06.055Z,102427.84
2023-05-03T01:22:43.999Z,102429.75
2023-05-03T01:25:15.137Z,102426.72
2023-05-03T01:27:44.055Z,102430.84
2023-05-03T01:30:13.611Z,102427.22
2023-05-03T01:32:53.812Z,102432.72
2023-05-03T01:35:30.098Z,102432.88
2023-05-03T01:37:58.877Z,102435.84
2023-05-03T01:40:29.408Z,102435.19
2023-05-03T01:42:58.848Z,102436.19
2023-05-03T01:45:27.255Z,102432.97
2023-05-03T01:47:57.614Z,102432.22
2023-05-03T01:50:25.697Z,102427.88
2023-05-03T01:52:53.717Z,102433.78
2023-05-03T01:55:21.618Z,102429.09
2023-05-03T01:57:50.974Z,102438.66
2023-05-03T02:00:19.979Z,102431.41
2023-05-03T02:02:47.918Z,102429.47
2023-05-03T02:05:15.999Z,102436.69
2023-05-03T02:07:43.935Z,102443.56
2023-05-03T02:10:14.586Z,102442.31
2023-05-03T02:12:43.203Z,102437.47
2023-05-03T02:15:13.953Z,102443.06
2023-05-03T02:17:45.531Z,102453.06
2023-05-03T02:20:14.149Z,102446.72
2023-05-03T02:22:42.221Z,102454.81
2023-05-03T02:25:11.342Z,102452.34
2023-05-03T02:27:39.308Z,102458.41
2023-05-03T02:30:08.926Z,102462.31
2023-05-03T02:32:43.870Z,102462.44
2023-05-03T02:35:12.150Z,102466.47
2023-05-03T02:37:40.088Z,102464.59
2023-05-03T02:40:12.704Z,102473.63
2023-05-03T02:42:42.184Z,102475.06
2023-05-03T02:45:10.832Z,102471.94
2023-05-03T02:47:38.885Z,102472.91
2023-05-03T02:50:09.219Z,102479.69
2023-05-03T02:52:41.067Z,102474.38
2023-05-03T02:55:10.047Z,102475.19
2023-05-03T02:57:40.422Z,102487.84
2023-05-03T03:00:15.327Z,102483.56
2023-05-03T03:02:44.216Z,102486.28
2023-05-03T03:05:14.182Z,102492.91
2023-05-03T03:07:47.146Z,102491.41
2023-05-03T03:10:15.325Z,102489.69
2023-05-03T03:12:43.492Z,102489.00
2023-05-03T03:15:17.443Z,102492.16
2023-05-03T03:17:45.368Z,102481.47
2023-05-03T03:20:15.083Z,102492.75
2023-05-03T03:22:47.186Z,102479.53
2023-05-03T03:25:15.993Z,102488.09
2023-05-03T03:27:43.866Z,102497.81
2023-05-03T03:30:12.322Z,102495.53
2023-05-03T03:32:51.319Z,102495.81
2023-05-03T03:35:28.638Z,102495.53
2023-05-03T03:37:56.587Z,102502.88
2023-05-03T03:40:25.406Z,102504.28
2023-05-03T03:42:56.095Z,102507.78
2023-05-03T03:45:24.140Z,102507.59
2023-05-03T03:47:53.685Z,102506.88
2023-05-03T03:50:23.649Z,102512.34
2023-05-03T03:52:52.918Z,102509.81
2023-05-03T03:55:21.231Z,102518.06
2023-05-03T03:57:51.083Z,102513.97
2023-05-03T04:00:19.967Z,102517.63
2023-05-03T04:02:54.227Z,102522.22
2023-05-03T04:05:22.322Z,102516.78
2023-05-03T04:07:50.250Z,102524.44
2023-05-03T04:10:21.514Z,102533.38
2023-05-03T04:12:49.719Z,102532.28
2023-05-03T04:15:18.191Z,102539.91
2023-05-03T04:17:48.384Z,102540.47
2023-05-03T04:20:18.150Z,102544.19
2023-05-03T04:22:49.399Z,102541.47
2023-05-03T04:25:19.504Z,102547.34
2023-05-03T04:27:56.814Z,102551.34
2023-05-03T04:30:26.110Z,102553.78
2023-05-03T04:32:58.358Z,102553.88
2023-05-03T04:35:28.761Z,102566.59
2023-05-03T04:37:58.172Z,102555.91
2023-05-03T04:40:27.977Z,102555.84
2023-05-03T04:43:04.445Z,102561.31
2023-05-03T04:45:35.279Z,102562.56
2023-05-03T04:48:05.616Z,102565.22
2023-05-03T04:50:34.322Z,102571.00
2023-05-03T04:53:02.448Z,102569.06
2023-05-03T04:55:34.196Z,102572.84
2023-05-03T04:58:05.847Z,102571.97
2023-05-03T05:00:34.606Z,102568.88
2023-05-03T05:03:08.953Z,102570.75
2023-05-03T05:05:37.100Z,102576.94
2023-05-03T05:08:05.288Z,102581.25
2023-05-03T05:10:42.502Z,102572.81
2023-05-03T05:13:14.204Z,102578.00
2023-05-03T05:15:42.911Z,102579.09
2023-05-03T05:18:13.123Z,102569.53
2023-05-03T05:20:41.687Z,102580.91
2023-05-03T05:23:09.874Z,102577.25
2023-05-03T05:25:38.911Z,102575.63
2023-05-03T05:28:07.006Z,102575.19
2023-05-03T05:30:37.318Z,102575.59
2023-05-03T05:33:05.404Z,102570.19
2023-05-03T05:35:35.312Z,102576.53
2023-05-03T05:38:03.310Z,102581.03
2023-05-03T05:40:32.269Z,102584.88
2023-05-03T05:43:01.732Z,102583.25
2023-05-03T05:45:32.000Z,102581.03
2023-05-03T05:48:01.303Z,102590.56
2023-05-03T05:50:31.481Z,102584.28
2023-05-03T05:53:03.543Z,102589.31
2023-05-03T05:55:36.887Z,102582.75
2023-05-03T05:58:04.774Z,102597.81
2023-05-03T06:00:39.855Z,102589.88
2023-05-03T06:03:09.479Z,102589.75
2023-05-03T06:05:37.721Z,102589.50
2023-05-03T06:08:06.339Z,102590.59
2023-05-03T06:10:34.851Z,102588.72
2023-05-03T06:13:03.815Z,102596.19
2023-05-03T06:15:31.878Z,102600.91
2023-05-03T06:18:00.247Z,102593.44
2023-05-03T06:20:29.589Z,102598.94
2023-05-03T06:22:58.208Z,102604.75
2023-05-03T06:25:27.002Z,102606.81
2023-05-03T06:27:54.967Z,102598.31
2023-05-03T06:30:28.616Z,102607.19
2023-05-03T06:33:01.309Z,102609.66
2023-05-03T06:35:31.312Z,102603.03
2023-05-03T06:37:59.194Z,102604.63
2023-05-03T06:40:27.599Z,102596.59
2023-05-03T06:42:55.536Z,102604.22
2023-05-03T06:45:34.418Z,102599.03
2023-05-03T06:48:02.588Z,102605.22
2023-05-03T06:50:31.878Z,102593.28
2023-05-03T06:52:59.737Z,102601.09
2023-05-03T06:55:27.840Z,102601.22
2023-05-03T06:57:55.777Z,102603.94
2023-05-03T07:00:24.152Z,102604.53
2023-05-03T07:02:52.157Z,102596.28
2023-05-03T07:05:20.226Z,102602.03
2023-05-03T07:07:49.473Z,102602.91
2023-05-03T07:10:17.361Z,102599.31
2023-05-03T07:12:45.387Z,102608.91
2023-05-03T07:15:13.279Z,102600.03
2023-05-03T07:17:41.207Z,102596.13
2023-05-03T07:20:09.998Z,102598.91
2023-05-03T07:22:37.926Z,102600.28
2023-05-03T07:25:08.115Z,102593.44
2023-05-03T07:27:36.073Z,102591.25
2023-05-03T07:30:05.038Z,102599.59
2023-05-03T07:32:33.688Z,102597.84
2023-05-03T07:35:01.586Z,102608.56
2023-05-03T07:37:29.493Z,102599.22
2023-05-03T07:39:57.347Z,102602.34
2023-05-03T07:42:27.056Z,102595.78
2023-05-03T07:44:55.524Z,102593.50
2023-05-03T07:47:23.410Z,102588.94
2023-05-03T07:49:51.417Z,102589.88
2023-05-03T07:52:19.284Z,102589.16
2023-05-03T07:54:47.145Z,102598.72
2023-05-03T07:57:16.152Z,102589.72
2023-05-03T07:59:45.729Z,102586.56
2023-05-03T08:02:13.736Z,102586.91
2023-05-03T08:04:42.036Z,102586.91
2023-05-03T08:07:10.034Z,102587.81
2023-05-03T08:09:38.218Z,102586.03
2023-05-03T08:12:06.468Z,102587.44
2023-05-03T08:14:34.825Z,102585.88
2023-05-03T08:17:04.801Z,102575.75
2023-05-03T08:19:32.850Z,102578.06
2023-05-03T08:22:00.809Z,102582.78
2023-05-03T08:24:28.736Z,102578.44
2023-05-03T08:26:56.831Z,102577.88
2023-05-03T08:29:27.034Z,102567.34
2023-05-03T08:31:55.662Z,102582.72
2023-05-03T08:34:25.254Z,102570.81
2023-05-03T08:36:53.237Z,102575.69
2023-05-03T08:39:21.133Z,102571.06
2023-05-03T08:41:50.181Z,102585.03
2023-05-03T08:44:22.695Z,102579.47
2023-05-03T08:46:50.831Z,102581.81
2023-05-03T08:49:19.736Z,102582.34
2023-05-03T08:51:49.856Z,102578.41
2023-05-03T08:54:20.650Z,102585.75
2023-05-03T08:56:49.977Z,102591.56
2023-05-03T08:59:17.855Z,102598.66
2023-05-03T09:01:45.997Z,102588.88
2023-05-03T09:04:14.140Z,102596.94
2023-05-03T09:06:42.526Z,102592.97
2023-05-03T09:09:11.899Z,102584.63
2023-05-03T09:11:40.522Z,102584.63
2023-05-03T09:14:13.160Z,102574.94
2023-05-03T09:16:44.622Z,102576.53
2023-05-03T09:19:14.420Z,102581.38
2023-05-03T09:21:44.156Z,102581.13
2023-05-03T09:24:18.113Z,102579.72
2023-05-03T09:26:47.188Z,102579.19
2023-05-03T09:29:30.153Z,102572.66
2023-05-03T09:32:02.689Z,102571.56
2023-05-03T09:34:31.655Z,102566.81
2023-05-03T09:36:59.616Z,102574.88
2023-05-03T09:39:29.463Z,102565.59
2023-05-03T09:41:57.508Z,102571.78
2023-05-03T09:44:41.854Z,102570.41
2023-05-03T09:47:11.462Z,102575.28
2023-05-03T09:49:40.024Z,102556.41
2023-05-03T09:52:09.281Z,102559.72
2023-05-03T09:54:39.541Z,102552.84
2023-05-03T09:57:09.122Z,102557.28
2023-05-03T09:59:39.568Z,102551.28
2023-05-03T10:02:08.961Z,102559.50
2023-05-03T10:04:42.898Z,102553.66
2023-05-03T10:07:14.291Z,102546.84
2023-05-03T10:09:46.815Z,102541.31
2023-05-03T10:12:17.334Z,102539.00
2023-05-03T10:14:48.384Z,102550.75
2023-05-03T10:17:31.894Z,102545.28
2023-05-03T10:20:15.086Z,102541.94
2023-05-03T10:23:10.910Z,102544.41
2023-05-03T10:25:42.080Z,102545.50
2023-05-03T10:28:10.893Z,102555.44
2023-05-03T10:30:40.217Z,102540.47
2023-05-03T10:33:33.861Z,102539.28
2023-05-03T10:36:06.958Z,102542.13
2023-05-03T10:38:34.947Z,102531.72
2023-05-03T10:41:06.744Z,102528.38
2023-05-03T10:43:44.870Z,102542.00
2023-05-03T10:46:31.937Z,102535.53
2023-05-03T10:49:19.993Z,102539.66
2023-05-03T10:51:48.088Z,102531.06
2023-05-03T10:54:17.072Z,102532.56
2023-05-03T10:56:57.470Z,102528.56
2023-05-03T10:59:26.077Z,102525.88
2023-05-03T11:01:54.503Z,102526.03
2023-05-03T11:04:39.294Z,102519.25
2023-05-03T11:07:07.280Z,102524.38
2023-05-03T11:09:35.828Z,102518.56
2023-05-03T11:12:09.644Z,102524.41
2023-05-03T11:14:39.644Z,102514.81
2023-05-03T11:17:07.769Z,102520.22
2023-05-03T11:19:35.903Z,102523.50
2023-05-03T11:22:03.944Z,102515.13
2023-05-03T11:24:32.016Z,102521.09
2023-05-03T11:27:00.028Z,102507.44
2023-05-03T11:29:37.695Z,102500.59
2023-05-03T11:32:08.957Z,102494.91
2023-05-03T11:34:37.152Z,102502.66
2023-05-03T11:37:05.269Z,102504.63
2023-05-03T11:39:34.018Z,102505.53
2023-05-03T11:42:04.388Z,102497.66
2023-05-03T11:44:32.537Z,102498.38
2023-05-03T11:47:02.460Z,102499.25
2023-05-03T11:49:30.759Z,102500.53
2023-05-03T11:51:58.878Z,102497.38
2023-05-03T11:54:28.413Z,102489.19
2023-05-03T11:56:59.078Z,102494.50
2023-05-03T11:59:38.600Z,102494.03
2023-05-03T12:02:11.484Z,102486.94
2023-05-03T12:04:42.899Z,102494.50
2023-05-03T12:07:15.312Z,102483.47
2023-05-03T12:09:52.442Z,102483.91
2023-05-03T12:12:32.292Z,102483.59
2023-05-03T12:15:04.069Z,102482.56
2023-05-03T12:17:39.094Z,102483.78
2023-05-03T12:22:51.668Z,102482.56
2023-05-03T12:25:21.763Z,102490.13
2023-05-03T12:28:15.935Z,102476.84
2023-05-03T12:30:45.371Z,102478.31
2023-05-03T12:33:17.290Z,102481.03
2023-05-03T12:35:47.937Z,102477.66
2023-05-03T12:38:17.660Z,102470.19
2023-05-03T12:40:47.240Z,102469.31
2023-05-03T12:43:16.218Z,102463.13
2023-05-03T12:45:47.229Z,102474.38
2023-05-03T12:48:25.026Z,102467.81
2023-05-03T12:51:05.363Z,102474.00
2023-05-03T12:53:46.618Z,102475.44
2023-05-03T12:56:15.091Z,102457.94
2023-05-03T12:59:11.674Z,102468.81
2023-05-03T13:04:40.591Z,102458.78
2023-05-03T13:06:58.731Z,102463.06
2023-05-03T13:09:37.708Z,102453.72
2023-05-03T13:12:18.062Z,102455.84
2023-05-03T13:14:46.143Z,102444.72
2023-05-03T13:17:14.352Z,102448.03
2023-05-03T13:19:43.855Z,102446.09
2023-05-03T13:22:12.485Z,102449.25
2023-05-03T13:24:41.379Z,102448.22
2023-05-03T13:27:10.587Z,102433.91
2023-05-03T13:29:38.823Z,102426.53
2023-05-03T13:32:08.084Z,102432.81
2023-05-03T13:34:36.766Z,102422.38
2023-05-03T13:37:06.421Z,102422.59
2023-05-03T13:39:34.599Z,102427.75
2023-05-03T13:42:03.464Z,102418.69
2023-05-03T13:44:31.394Z,102411.69
2023-05-03T13:46:59.308Z,102402.97
2023-05-03T13:49:27.497Z,102406.47
2023-05-03T13:51:55.556Z,102400.38
2023-05-03T13:54:25.448Z,102397.56
2023-05-03T13:56:53.368Z,102397.59
2023-05-03T13:59:21.290Z,102408.38
2023-05-03T14:01:49.335Z,102407.34
2023-05-03T14:04:17.368Z,102395.84
2023-05-03T14:06:45.499Z,102392.34
2023-05-03T14:09:14.024Z,102391.91
2023-05-03T14:11:43.394Z,102396.03
2023-05-03T14:14:11.347Z,102394.09
2023-05-03T14:16:41.459Z,102391.84
2023-05-03T14:19:11.835Z,102392.09
2023-05-03T14:21:40.351Z,102389.47
2023-05-03T14:24:08.450Z,102385.94
2023-05-03T14:26:36.959Z,102386.03
2023-05-03T14:29:06.399Z,102378.75
2023-05-03T14:31:34.826Z,102391.28
2023-05-03T14:34:03.196Z,102381.78
2023-05-03T14:36:36.065Z,102364.00
2023-05-03T14:39:04.988Z,102381.56
2023-05-03T14:41:33.296Z,102375.38
2023-05-03T14:44:01.350Z,102378.72
2023-05-03T14:46:31.250Z,102377.00
2023-05-03T14:49:01.433Z,102365.50
2023-05-03T14:51:29.458Z,102370.72
2023-05-03T14:53:57.398Z,102372.91
2023-05-03T14:56:25.982Z,102376.47
2023-05-03T14:58:54.053Z,102375.31
2023-05-03T15:01:22.685Z,102368.97
2023-05-03T15:03:52.163Z,102369.75
2023-05-03T15:06:25.037Z,102368.56
2023-05-03T15:08:55.011Z,102369.53
2023-05-03T15:11:23.045Z,102377.25
2023-05-03T15:13:51.100Z,102374.38
2023-05-03T15:16:19.282Z,102375.50
2023-05-03T15:18:48.304Z,102368.34
2023-05-03T15:21:21.142Z,102368.00
2023-05-03T15:23:49.467Z,102363.16
2023-05-03T15:26:17.714Z,102357.06
2023-05-03T15:28:45.618Z,102352.75
2023-05-03T15:31:14.519Z,102351.69
2023-05-03T15:33:43.392Z,102353.84
2023-05-03T15:36:13.015Z,102360.25
2023-05-03T15:38:42.455Z,102355.72
2023-05-03T15:41:10.381Z,102356.44
2023-05-03T15:43:38.176Z,102362.59
2023-05-03T15:46:06.948Z,102354.97
2023-05-03T15:48:34.995Z,102340.66
2023-05-03T15:51:02.978Z,102348.09
2023-05-03T15:53:31.043Z,102351.84
2023-05-03T15:56:02.401Z,102355.38
2023-05-03T15:58:30.565Z,102341.94
2023-05-03T16:00:59.364Z,102347.06
2023-05-03T16:03:28.702Z,102358.59
2023-05-03T16:05:57.195Z,102348.81
2023-05-03T16:08:26.302Z,102345.56
2023-05-03T16:10:54.317Z,102358.28
2023-05-03T16:13:23.900Z,102335.00
2023-05-03T16:15:53.015Z,102341.13
2023-05-03T16:18:20.938Z,102331.00
2023-05-03T16:20:49.306Z,102330.38
2023-05-03T16:23:17.417Z,102332.72
2023-05-03T16:25:45.367Z,102328.66
2023-05-03T16:28:13.459Z,102325.72
2023-05-03T16:30:42.742Z,102330.06
2023-05-03T16:33:10.721Z,102326.31
2023-05-03T16:35:38.650Z,102322.22
2023-05-03T16:38:07.224Z,102335.06
2023-05-03T16:40:35.202Z,102331.53
2023-05-03T16:43:03.127Z,102333.47
2023-05-03T16:45:31.268Z,102325.44
2023-05-03T16:48:03.628Z,102334.09
2023-05-03T16:50:32.960Z,102327.19
2023-05-03T16:53:00.935Z,102330.03
2023-05-03T16:55:28.878Z,102331.72
2023-05-03T16:57:56.886Z,102328.28
2023-05-03T17:00:24.874Z,102325.59
2023-05-03T17:02:53.257Z,102319.66
2023-05-03T17:05:24.063Z,102326.06
2023-05-03T17:07:52.013Z,102328.78
2023-05-03T17:10:20.033Z,102325.63
2023-05-03T17:12:48.731Z,102327.84
2023-05-03T17:15:16.926Z,102335.41
2023-05-03T17:17:44.923Z,102328.50
2023-05-03T17:20:14.272Z,102337.41
2023-05-03T17:22:43.526Z,102334.03
2023-05-03T17:25:11.721Z,102335.84
2023-05-03T17:27:39.577Z,102330.94
2023-05-03T17:30:09.583Z,102345.97
2023-05-03T17:32:37.626Z,102334.28
2023-05-03T17:35:06.838Z,102337.25
2023-05-03T17:37:34.846Z,102334.41
2023-05-03T17:40:06.572Z,102338.50
2023-05-03T17:42:34.782Z,102330.78
2023-05-03T17:45:03.308Z,102338.63
2023-05-03T17:47:31.567Z,102337.16
2023-05-03T17:49:59.562Z,102337.41
2023-05-03T17:52:27.578Z,102329.91
2023-05-03T17:54:56.755Z,102342.94
2023-05-03T17:57:26.500Z,102339.63
2023-05-03T17:59:54.453Z,102332.75
2023-05-03T18:02:22.765Z,102340.38
2023-05-03T18:04:50.754Z,102341.94
2023-05-03T18:07:18.596Z,102338.13
2023-05-03T18:09:46.790Z,102343.06
2023-05-03T18:12:14.744Z,102352.06
2023-05-03T18:14:44.011Z,102355.03
2023-05-03T18:17:11.903Z,102350.34
2023-05-03T18:19:44.125Z,102355.91
2023-05-03T18:22:12.448Z,102355.97
2023-05-03T18:24:40.358Z,102360.28
2023-05-03T18:27:09.135Z,102365.59
2023-05-03T18:29:37.047Z,102362.28
2023-05-03T18:32:06.724Z,102370.63
2023-05-03T18:34:37.335Z,102360.31
2023-05-03T18:37:05.363Z,102364.66
2023-05-03T18:39:33.634Z,102362.16
2023-05-03T18:42:01.827Z,102356.56
2023-05-03T18:44:31.864Z,102363.97
2023-05-03T18:46:59.833Z,102368.16
2023-05-03T18:49:29.145Z,102372.75
2023-05-03T18:51:57.983Z,102377.53
2023-05-03T18:54:26.021Z,102381.53
2023-05-03T18:56:54.027Z,102373.13
2023-05-03T18:59:21.929Z,102379.81
2023-05-03T19:01:50.872Z,102379.59
2023-05-03T19:04:18.877Z,102382.22
2023-05-03T19:06:48.378Z,102383.41
2023-05-03T19:09:16.400Z,102385.13
2023-05-03T19:11:44.944Z,102388.66
2023-05-03T19:14:12.996Z,102385.19
2023-05-03T19:16:41.077Z,102392.03
2023-05-03T19:19:10.678Z,102382.00
2023-05-03T19:21:42.165Z,102391.72
2023-05-03T19:24:12.987Z,102398.06
2023-05-03T19:26:41.143Z,102394.63
2023-05-03T19:29:09.157Z,102395.63
2023-05-03T19:31:37.156Z,102395.91
2023-05-03T19:34:05.222Z,102400.16
2023-05-03T19:36:33.216Z,102395.75
2023-05-03T19:39:03.408Z,102397.75
2023-05-03T19:41:33.444Z,102394.13
2023-05-03T19:44:01.386Z,102388.63
2023-05-03T19:46:29.488Z,102386.69
2023-05-03T19:48:57.495Z,102380.41
2023-05-03T19:51:25.537Z,102391.44
2023-05-03T19:53:53.446Z,102390.81
2023-05-03T19:56:22.175Z,102385.94
2023-05-03T19:58:58.489Z,102391.44
2023-05-03T20:01:26.756Z,102390.47
2023-05-03T20:03:55.098Z,102390.91
2023-05-03T20:06:23.154Z,102391.88
2023-05-03T20:08:51.385Z,102393.28
2023-05-03T20:11:20.545Z,102392.81
2023-05-03T20:13:48.494Z,102391.44
2023-05-03T20:16:20.043Z,102388.09
2023-05-03T20:18:49.469Z,102392.63
2023-05-03T20:21:17.342Z,102392.09
2023-05-03T20:23:45.203Z,102395.34
2023-05-03T20:26:13.073Z,102393.31
2023-05-03T20:28:40.943Z,102395.56
2023-05-03T20:31:10.863Z,102395.69
2023-05-03T20:33:40.193Z,102398.78
2023-05-03T20:36:08.654Z,102396.72
2023-05-03T20:38:36.563Z,102398.25
2023-05-03T20:41:04.436Z,102400.03
2023-05-03T20:43:32.317Z,102403.84
2023-05-03T20:46:00.217Z,102405.31
2023-05-03T20:48:28.587Z,102403.03
2023-05-03T20:50:58.895Z,102401.78
2023-05-03T20:53:26.777Z,102397.75
2023-05-03T20:55:56.829Z,102401.88
2023-05-03T20:58:24.862Z,102403.34
2023-05-03T21:00:54.775Z,102396.16
2023-05-03T21:03:24.893Z,102396.34
2023-05-03T21:05:52.960Z,102391.91
2023-05-03T21:08:22.214Z,102400.28
2023-05-03T21:10:50.117Z,102400.19
2023-05-03T21:13:18.073Z,102407.53
2023-05-03T21:15:46.151Z,102398.19
2023-05-03T21:18:14.059Z,102400.44
2023-05-03T21:20:41.995Z,102398.69
2023-05-03T21:23:10.129Z,102397.53
2023-05-03T21:25:39.463Z,102398.69
2023-05-03T21:28:07.349Z,102400.63
2023-05-03T21:30:35.295Z,102403.81
2023-05-03T21:33:03.273Z,102404.09
2023-05-03T21:35:31.218Z,102394.97
2023-05-03T21:37:59.078Z,102397.00
2023-05-03T21:40:27.014Z,102398.72
2023-05-03T21:42:56.711Z,102397.06
2023-05-03T21:45:24.860Z,102395.53
2023-05-03T21:47:52.871Z,102389.28
2023-05-03T21:50:21.021Z,102388.72
2023-05-03T21:52:49.011Z,102391.50
2023-05-03T21:55:16.971Z,102390.06
2023-05-03T21:57:44.823Z,102402.47
2023-05-03T22:00:19.746Z,102398.41
2023-05-03T22:02:48.125Z,102394.50
2023-05-03T22:05:16.258Z,102396.31
2023-05-03T22:07:44.141Z,102395.44
2023-05-03T22:10:12.146Z,102393.22
2023-05-03T22:12:40.121Z,102388.72
2023-05-03T22:15:09.186Z,102394.56
2023-05-03T22:17:38.673Z,102404.75
2023-05-03T22:20:08.151Z,102391.03
2023-05-03T22:22:36.401Z,102401.19
2023-05-03T22:25:04.646Z,102399.63
2023-05-03T22:27:32.538Z,102397.34
2023-05-03T22:30:00.570Z,102391.38
2023-05-03T22:32:28.533Z,102393.16
2023-05-03T22:34:57.822Z,102398.53
2023-05-03T22:37:26.345Z,102396.13
2023-05-03T22:39:54.190Z,102395.75
2023-05-03T22:42:22.163Z,102400.13
2023-05-03T22:44:50.018Z,102391.56
2023-05-03T22:47:17.867Z,102398.59
2023-05-03T22:49:45.724Z,102397.75
2023-05-03T22:52:15.022Z,102396.28
2023-05-03T22:54:42.938Z,102396.63
2023-05-03T22:57:10.973Z,102401.03
2023-05-03T22:59:38.844Z,102400.16
2023-05-03T23:02:06.703Z,102404.13
2023-05-03T23:04:34.659Z,102400.19
2023-05-03T23:07:03.149Z,102397.06
2023-05-03T23:09:32.394Z,102398.97
2023-05-03T23:12:00.586Z,102396.28
2023-05-03T23:14:28.462Z,102392.13
2023-05-03T23:16:56.361Z,102392.81
2023-05-03T23:19:24.437Z,102396.81
2023-05-03T23:21:52.584Z,102386.50
2023-05-03T23:24:20.473Z,102394.19
2023-05-03T23:26:49.706Z,102385.41
2023-05-03T23:29:18.034Z,102389.59
2023-05-03T23:31:46.803Z,102387.69
2023-05-03T23:34:15.160Z,102394.41
2023-05-03T23:36:43.014Z,102389.53
2023-05-03T23:39:10.928Z,102384.25
2023-05-03T23:41:38.803Z,102383.91
2023-05-03T23:44:08.153Z,102382.38
2023-05-03T23:46:36.049Z,102386.63
2023-05-03T23:49:04.128Z,102382.47
2023-05-03T23:51:32.037Z,102382.47
2023-05-03T23:53:59.937Z,102390.25
2023-05-03T23:56:27.877Z,102379.59
2023-05-03T23:58:55.786Z,102377.97
